AirNav   Everest Fuels
 
 759 users online  

MO55 SSM Health St Louis University Hospital Heliport
St Louis, Missouri, USA

GOING TO ST LOUIS?


FAA INFORMATION EFFECTIVE 21 MAY 2020

Location

FAA Identifier: MO55
Lat/Long: 38-37-14.4600N 090-14-23.7800W
38-37.241000N 090-14.396333W
38.6206833,-90.2399389
(estimated)
Elevation: 550 ft. / 168 m (estimated)
Variation: 02E (1985)
From city: 3 miles W of ST LOUIS, MO
Time zone: UTC -5 (UTC -6 during Standard Time)
Zip code: 63104

Heliport Operations

Heliport use: Private use, MEDICAL.
Activation date: 11/1988
Control tower: no
ARTCC: KANSAS CITY CENTER
FSS: SAINT LOUIS FLIGHT SERVICE STATION
Attendance: CONTINUOUS
Wind indicator: yes
Segmented circle: no
Lights: ACTVT FLOOD LGTS - 123.050.
Beacon: white-green-yellow (heliport)
24 HRS.

Heliport Communications

WX ASOS at CPS (5 nm SE): PHONE 618-332-0001
WX ASOS at STL (10 nm NW): 125.025 (314-890-4790)
WX AWOS-3 at ALN (19 nm NE): 128.0 (618-259-7231)
WX ASOS at SUS (19 nm W): 134.8 (314-890-7255)

Nearby radio navigation aids

VOR radial/distance  VOR name  Freq  Var
TOYr241/16.6TROY VORTAC116.0004E
STLr141/18.3ST LOUIS VORTAC117.4001E
FTZr092/34.5FORISTELL VORTAC110.8005E

 
NDB name  Hdg/Dist  Freq  Var  ID
ACORE306/10.435000ECP -.-. .--.
EAVES104/14.822701WFZ ..-. --..
CIVIC MEMORIAL209/18.426301WCVM -.-. ...- --

Heliport Services

Runway Information

Helipad H1

Dimensions: 50 x 50 ft. / 15 x 15 m
Surface: metal
ROOFTOP.
Runway edge lights: FLD
Latitude: 38-37.241000N
Longitude: 090-14.396333W
Elevation: 550.0 ft.
Traffic pattern: leftleft

Heliport Ownership and Management from official FAA records

Ownership: Privately-owned
Owner: SSM HEALTH ST. LOUIS UNIV. HOSPITAL
1015 CORPORATE SQUARE DR.
ST LOUIS, MO 63132
Phone (314) 989-2895
Manager: JOHN O'BRIEN
1015 CORPORATE SQ DR., SUITE 110
ST LOUIS, MO 63132
Phone (314) 989-2895

Additional Remarks

A52-H1 30' BLDG (LGTD) 150' W & 30' SIGN STRUCTURE 35' S OF PAD.
DUE TO MULTIPLE OBSTRUCTIONS WITHIN H1 TLOF, FATO, AND SAFETY AREAS, NO CLEAR INGRESS/EGRESS EXISTS FOR THIS HELIPORT. EXERCISE CAUTION.
FOR CD CTC ST LOUIS APCH AT 314-890-1018.

Instrument Procedures

There are no published instrument procedures at MO55.

Some nearby airports with instrument procedures:

KCPS - St Louis Downtown Airport (5 nm SE)
KSTL - St Louis Lambert International Airport (10 nm NW)
1H0 - Creve Coeur Airport (14 nm NW)
KALN - St Louis Regional Airport (19 nm NE)
KSUS - Spirit of St Louis Airport (19 nm W)
KBLV - Scott Air Force Base/MidAmerica Airport (20 nm E)
 
Loc | Ops | Rwys | IFR | FBO | Links
Com | Nav | Svcs | Stats | Notes
Area around MO55 (SSM Health St Louis University Hospital Heliport)
 
Road maps at: MapQuest Bing Google
 
Aerial photo
No photo
 
Sectional chart

 
Airport distance calculator
Flying to SSM Health St Louis University Hospital Heliport? Find the distance to fly.

From to MO55

Sunrise and sunset
Times for 04-Jun-2020
 Local
(UTC-5)
 Zulu
(UTC)
Morning civil twilight05:0610:06
Sunrise05:3810:38
Sunset20:2101:21
Evening civil twilight20:5201:52

Current date and time
Zulu (UTC)  05-Jun-2020 03:47:16
Local (UTC-5)  04-Jun-2020 22:47:16
 
METAR
KCPS 
5nm SE 
050253Z AUTO 00000KT 10SM CLR 24/19 A2982 RMK AO2 SLP093 T02390194 53010
KSTL 
10nm NW 
050251Z 00000KT 10SM CLR 26/18 A2983 RMK AO2 SLP090 T02610183 52010
KALN 
18nm NE 
050335Z AUTO 10003KT 10SM CLR 22/21 A2984 RMK AO2 T02220207
KSUS 
19nm W 
050254Z AUTO 00000KT 10SM CLR 22/20 A2981 RMK AO2 SLP088 T02170200 51007
KBLV 
20nm E 
050256Z AUTO 00000KT 10SM CLR 23/19 A2981 RMK AO2 SLP094 T02270194 52011 $
TAF
KCPS 
5nm SE 
041727Z 0418/0518 VRB05KT P6SM VCSH SCT040 BKN100 FM042100 VRB04KT P6SM SCT050 FM051400 24005KT P6SM VCSH SCT050
KSTL 
10nm NW 
042124Z 0421/0524 VRB04KT P6SM SCT040 BKN250 FM051400 24007KT P6SM VCSH SCT050 FM052100 29007KT P6SM SCT060
KSUS 
19nm W 
041727Z 0418/0518 VRB05KT P6SM VCSH SCT040 BKN100 FM042100 VRB04KT P6SM SCT050 FM051400 24005KT P6SM VCSH SCT050
KBLV 
20nm E 
050000Z 0500/0606 VRB06KT 9999 SCT040 QNH2978INS BECMG 0516/0517 VRB06KT 9999 BKN050 QNH2982INS BECMG 0603/0604 04006KT 6000 SHRA SCT020 BKN025 QNH2988INS TX31/0521Z TN20/0509Z
NOTAMs
Click for the latest NOTAMs
NOTAMs are issued by the DoD/FAA and will open in a separate window not controlled by AirNav.

 

 
 

Would you like to see your business listed on this page?

 If your business provides an interesting product or service to pilots, flight crews, aircraft, or users of the SSM Health St Louis University Hospital Heliport, you should consider listing it here.  To start the listing process, click on the button below
 
Add a business
 

Other Pages about SSM Health St Louis University Hospital Heliport

Update a link
 
Copyright © AirNav, LLC. All rights reserved. Privacy Policy  Contact